Terminal Aerodrome Forecast
Issued by NWS

Home | Current Version | Previous Version | Text Only | Print | Product List | Glossary On
Versions: 1 2 3 4 5 6 7 8 9 10 11 12
000
FTUS45 KABQ 221600 AAA
TAFAEG
TAF AMD
KAEG 221631Z 2217/2312 VRB05KT P6SM -SHRA BKN060
      TEMPO 2217/2219 6SM -SHRA BR BKN030
     FM221900 21008KT P6SM SCT050 BKN090
     FM222200 21009KT P6SM VCTS SCT060CB BKN090
     FM230100 VRB06KT P6SM SCT100=

USA.gov is the U.S. government's official web portal to all federal, state and local government web resources and services.